AST,Max TemperatureF,Mean TemperatureF,Min TemperatureF,Max Dew PointF,MeanDew PointF,Min DewpointF,Max Humidity, Mean Humidity, Min Humidity, Max Sea Level PressureIn, Mean Sea Level PressureIn, Min Sea Level PressureIn, Max VisibilityMiles, Mean VisibilityMiles, Min VisibilityMiles, Max Wind SpeedMPH, Mean Wind SpeedMPH, Max Gust SpeedMPH,PrecipitationIn, CloudCover, Events, WindDirDegrees
2013-11-1,90,82,75,75,70,61,94,68,39,30.04,29.97,29.95,7,5,3,9,5,,0.00,,,45
2013-11-2,88,82,76,77,75,72,89,78,66,30.01,29.95,29.92,6,5,4,10,5,,0.00,2,,89
2013-11-3,95,86,77,77,71,57,89,63,31,30.00,29.93,29.89,9,5,4,13,6,,0.00,1,,135
2013-11-4,93,86,78,77,72,61,84,68,36,30.06,30.00,29.95,9,6,6,15,7,,0.00,1,,40
2013-11-5,87,82,77,70,62,50,74,54,30,30.13,30.06,30.04,10,7,6,15,12,,0.00,1,,339
2013-11-6,86,79,72,66,63,59,69,58,42,30.14,30.05,30.01,7,6,6,12,7,,0.00,1,,333
2013-11-7,84,80,75,69,65,63,74,61,46,30.07,30.01,29.98,10,6,5,9,6,,0.00,1,,6
2013-11-8,85,79,73,66,63,61,69,57,45,30.06,29.99,29.95,10,6,6,9,3,,0.00,1,,89
2013-11-9,88,82,77,72,68,63,74,63,49,30.04,29.99,29.95,10,7,6,16,7,,0.00,1,,83
2013-11-10,88,82,76,75,70,61,83,65,36,30.08,30.02,29.98,10,7,6,18,8,,0.00,1,,107
2013-11-11,87,81,75,70,69,67,78,66,46,30.09,30.02,29.98,12,7,6,74,7,,0.00,1,,83
2013-11-12,89,81,73,70,63,54,83,55,25,30.04,29.97,29.92,10,7,6,10,4,,0.00,1,,334
2013-11-13,90,81,72,68,61,54,69,52,19,29.99,29.93,29.89,9,6,5,10,5,,0.00,1,,153
2013-11-14,87,81,75,70,65,59,65,56,29,29.96,29.90,29.86,9,6,6,14,6,,0.00,3,,157
2013-11-15,84,80,75,68,64,63,74,59,42,30.01,29.96,29.92,9,6,6,14,8,23,0.00,1,,354
2013-11-16,82,78,73,63,59,53,65,51,31,30.09,30.01,29.98,10,8,6,13,9,,0.00,1,,2
2013-11-17,78,74,69,64,62,58,83,69,44,30.12,30.01,29.95,10,6,0,16,9,28,0.12,6,Rain,8
2013-11-18,83,76,70,73,69,64,79,69,54,30.01,29.97,29.92,9,5,3,18,12,28,0.00,4,,105
2013-11-19,84,81,78,72,69,63,78,66,40,30.02,29.97,29.92,7,4,2,20,15,,0.00,4,,115
2013-11-20,82,77,71,73,70,66,91,77,57,30.01,29.94,29.86,7,6,4,18,14,,0.71,6,Rain-Thunderstorm,84
2013-11-21,77,73,69,67,64,59,88,73,52,29.94,29.87,29.82,9,6,5,21,10,,0.00,6,Rain,271
2013-11-22,73,69,65,59,56,55,78,61,43,29.98,29.93,29.86,10,7,6,14,8,23,0.00,2,,289
2013-11-23,76,70,64,61,57,54,83,63,44,30.08,30.01,29.98,10,7,6,13,8,,0.00,1,,299
2013-11-24,78,71,64,59,55,52,68,55,32,30.13,30.06,30.01,10,7,6,113,7,,0.00,1,,302
2013-11-25,78,72,66,59,55,52,78,53,31,30.14,30.07,30.04,10,6,4,13,6,,0.00,1,,309
2013-11-26,81,73,65,63,56,48,78,56,24,30.13,30.06,30.01,11,6,4,12,5,,0.00,,,303
2013-11-27,83,74,65,66,58,48,78,59,21,30.14,30.07,30.04,10,5,4,10,5,,0.00,,,315
2013-11-28,80,74,68,67,65,63,88,75,56,30.17,30.10,30.06,6,3,1,12,8,,0.00,1,,331
2013-11-29,79,72,66,70,66,64,88,79,61,30.17,30.10,30.06,6,4,2,6,3,,0.00,1,,12
2013-11-30,81,74,67,70,66,63,88,75,52,30.18,30.12,30.09,9,5,2,9,3,,0.00,1,,19